Terminal Aerodrome Forecast
Issued by NWS

Home | Current Version | Previous Version | Text Only | Print | Product List | Glossary On
Versions: 1 2 3 4 5 6 7 8 9 10 11 12 13
620
FTUS43 KIND 281122
TAFHUF
TAF
KHUF 281122Z 2812/2912 15005KT P6SM FEW250
     FM281400 17009KT P6SM FEW250
     FM281700 19013KT P6SM SCT200
     FM290000 18009KT P6SM FEW250
     FM290800 19008KT P6SM SCT045 BKN150 WS015/23035KT=

USA.gov is the U.S. government's official web portal to all federal, state and local government web resources and services.